sensor_id;sensor_type;location;lat;lon;timestamp;P1;durP1;ratioP1;P2;durP2;ratioP2
14001;SDS011;7076;51.280;12.584;2023-06-22T00:00:54;5.97;;;5.00;;
14001;SDS011;7076;51.280;12.584;2023-06-22T00:05:58;6.45;;;5.45;;
14001;SDS011;7076;51.280;12.584;2023-06-22T00:11:01;6.70;;;5.85;;
14001;SDS011;7076;51.280;12.584;2023-06-22T00:16:04;5.82;;;5.32;;
14001;SDS011;7076;51.280;12.584;2023-06-22T00:21:08;7.13;;;5.50;;
14001;SDS011;7076;51.280;12.584;2023-06-22T00:26:14;5.85;;;4.90;;
14001;SDS011;7076;51.280;12.584;2023-06-22T00:31:17;5.95;;;5.32;;
14001;SDS011;7076;51.280;12.584;2023-06-22T00:36:21;6.00;;;5.30;;
14001;SDS011;7076;51.280;12.584;2023-06-22T00:41:26;6.35;;;5.32;;
14001;SDS011;7076;51.280;12.584;2023-06-22T00:46:29;6.82;;;5.90;;
14001;SDS011;7076;51.280;12.584;2023-06-22T00:51:35;6.53;;;5.85;;
14001;SDS011;7076;51.280;12.584;2023-06-22T00:56:39;10.85;;;6.90;;
14001;SDS011;7076;51.280;12.584;2023-06-22T01:01:44;7.47;;;6.25;;
14001;SDS011;7076;51.280;12.584;2023-06-22T01:06:50;6.22;;;5.63;;
14001;SDS011;7076;51.280;12.584;2023-06-22T01:11:57;9.15;;;5.85;;
14001;SDS011;7076;51.280;12.584;2023-06-22T01:17:02;6.57;;;5.72;;
14001;SDS011;7076;51.280;12.584;2023-06-22T01:22:08;6.93;;;5.47;;
14001;SDS011;7076;51.280;12.584;2023-06-22T01:27:18;6.57;;;5.97;;
14001;SDS011;7076;51.280;12.584;2023-06-22T01:32:30;7.28;;;5.50;;
14001;SDS011;7076;51.280;12.584;2023-06-22T01:37:35;7.95;;;6.18;;
14001;SDS011;7076;51.280;12.584;2023-06-22T01:42:39;10.32;;;6.50;;
14001;SDS011;7076;51.280;12.584;2023-06-22T01:47:43;9.13;;;6.18;;
14001;SDS011;7076;51.280;12.584;2023-06-22T01:52:47;8.00;;;6.10;;
14001;SDS011;7076;51.280;12.584;2023-06-22T01:57:49;7.80;;;6.60;;
14001;SDS011;7076;51.280;12.584;2023-06-22T02:03:02;7.63;;;6.00;;
14001;SDS011;7076;51.280;12.584;2023-06-22T02:08:09;7.10;;;6.40;;
14001;SDS011;7076;51.280;12.584;2023-06-22T02:13:13;7.90;;;6.63;;
14001;SDS011;7076;51.280;12.584;2023-06-22T02:18:18;8.02;;;6.35;;
14001;SDS011;7076;51.280;12.584;2023-06-22T02:23:22;7.70;;;6.03;;
14001;SDS011;7076;51.280;12.584;2023-06-22T02:28:24;7.95;;;6.63;;
14001;SDS011;7076;51.280;12.584;2023-06-22T02:33:29;9.18;;;7.07;;
14001;SDS011;7076;51.280;12.584;2023-06-22T02:38:32;10.63;;;6.90;;
14001;SDS011;7076;51.280;12.584;2023-06-22T02:43:36;7.47;;;6.68;;
14001;SDS011;7076;51.280;12.584;2023-06-22T02:48:40;7.15;;;6.45;;
14001;SDS011;7076;51.280;12.584;2023-06-22T02:53:46;10.38;;;7.30;;
14001;SDS011;7076;51.280;12.584;2023-06-22T02:58:50;7.90;;;6.60;;
14001;SDS011;7076;51.280;12.584;2023-06-22T03:03:54;7.22;;;6.38;;
14001;SDS011;7076;51.280;12.584;2023-06-22T03:08:58;8.85;;;7.15;;
14001;SDS011;7076;51.280;12.584;2023-06-22T03:14:02;8.40;;;6.78;;
14001;SDS011;7076;51.280;12.584;2023-06-22T03:19:07;7.18;;;6.47;;
14001;SDS011;7076;51.280;12.584;2023-06-22T03:24:10;8.57;;;6.72;;
14001;SDS011;7076;51.280;12.584;2023-06-22T03:29:13;10.88;;;7.47;;
14001;SDS011;7076;51.280;12.584;2023-06-22T03:34:20;7.45;;;6.68;;
14001;SDS011;7076;51.280;12.584;2023-06-22T03:39:26;9.82;;;7.55;;
14001;SDS011;7076;51.280;12.584;2023-06-22T03:44:29;9.40;;;7.47;;
14001;SDS011;7076;51.280;12.584;2023-06-22T03:49:33;9.48;;;7.30;;
14001;SDS011;7076;51.280;12.584;2023-06-22T03:54:36;9.38;;;8.27;;
14001;SDS011;7076;51.280;12.584;2023-06-22T03:59:39;10.90;;;8.13;;
14001;SDS011;7076;51.280;12.584;2023-06-22T04:04:43;9.95;;;7.78;;
14001;SDS011;7076;51.280;12.584;2023-06-22T04:09:47;14.10;;;7.25;;
14001;SDS011;7076;51.280;12.584;2023-06-22T04:14:49;9.55;;;7.60;;
14001;SDS011;7076;51.280;12.584;2023-06-22T04:19:54;11.82;;;7.88;;
14001;SDS011;7076;51.280;12.584;2023-06-22T04:24:57;12.52;;;7.50;;
14001;SDS011;7076;51.280;12.584;2023-06-22T04:30:00;9.27;;;7.00;;
14001;SDS011;7076;51.280;12.584;2023-06-22T04:35:05;11.93;;;7.88;;
14001;SDS011;7076;51.280;12.584;2023-06-22T04:40:08;12.02;;;8.18;;
14001;SDS011;7076;51.280;12.584;2023-06-22T04:45:12;10.55;;;7.82;;
14001;SDS011;7076;51.280;12.584;2023-06-22T04:50:16;9.90;;;8.90;;
14001;SDS011;7076;51.280;12.584;2023-06-22T04:55:23;10.05;;;8.60;;
14001;SDS011;7076;51.280;12.584;2023-06-22T05:00:27;11.00;;;9.05;;
14001;SDS011;7076;51.280;12.584;2023-06-22T05:05:46;10.95;;;8.85;;
14001;SDS011;7076;51.280;12.584;2023-06-22T05:10:49;12.38;;;8.85;;
14001;SDS011;7076;51.280;12.584;2023-06-22T05:16:05;9.82;;;8.93;;
14001;SDS011;7076;51.280;12.584;2023-06-22T05:21:10;11.48;;;9.35;;
14001;SDS011;7076;51.280;12.584;2023-06-22T05:26:13;13.68;;;8.55;;
14001;SDS011;7076;51.280;12.584;2023-06-22T05:31:16;11.10;;;9.45;;
14001;SDS011;7076;51.280;12.584;2023-06-22T05:36:22;13.73;;;9.10;;
14001;SDS011;7076;51.280;12.584;2023-06-22T05:41:26;11.55;;;8.43;;
14001;SDS011;7076;51.280;12.584;2023-06-22T05:46:29;12.13;;;8.32;;
14001;SDS011;7076;51.280;12.584;2023-06-22T05:51:33;10.30;;;8.23;;
14001;SDS011;7076;51.280;12.584;2023-06-22T05:56:36;9.88;;;7.53;;
14001;SDS011;7076;51.280;12.584;2023-06-22T06:01:39;11.15;;;7.72;;
14001;SDS011;7076;51.280;12.584;2023-06-22T06:06:44;11.07;;;8.13;;
14001;SDS011;7076;51.280;12.584;2023-06-22T06:11:48;10.00;;;8.23;;
14001;SDS011;7076;51.280;12.584;2023-06-22T06:16:51;12.00;;;8.25;;
14001;SDS011;7076;51.280;12.584;2023-06-22T06:21:55;13.02;;;8.55;;
14001;SDS011;7076;51.280;12.584;2023-06-22T06:26:58;11.23;;;8.18;;
14001;SDS011;7076;51.280;12.584;2023-06-22T06:32:01;15.05;;;8.00;;
14001;SDS011;7076;51.280;12.584;2023-06-22T06:37:05;10.43;;;7.53;;
14001;SDS011;7076;51.280;12.584;2023-06-22T06:42:09;7.55;;;6.85;;
14001;SDS011;7076;51.280;12.584;2023-06-22T06:47:12;9.38;;;7.82;;
14001;SDS011;7076;51.280;12.584;2023-06-22T06:52:16;7.60;;;6.90;;
14001;SDS011;7076;51.280;12.584;2023-06-22T06:57:23;8.95;;;6.82;;
14001;SDS011;7076;51.280;12.584;2023-06-22T07:02:30;7.88;;;7.10;;
14001;SDS011;7076;51.280;12.584;2023-06-22T07:07:34;8.48;;;7.05;;
14001;SDS011;7076;51.280;12.584;2023-06-22T07:12:39;11.77;;;7.32;;
14001;SDS011;7076;51.280;12.584;2023-06-22T07:17:42;9.30;;;7.05;;
14001;SDS011;7076;51.280;12.584;2023-06-22T07:22:47;7.15;;;6.45;;
14001;SDS011;7076;51.280;12.584;2023-06-22T07:27:56;12.55;;;7.15;;
14001;SDS011;7076;51.280;12.584;2023-06-22T07:33:01;8.55;;;6.70;;
14001;SDS011;7076;51.280;12.584;2023-06-22T07:38:08;8.75;;;6.25;;
14001;SDS011;7076;51.280;12.584;2023-06-22T07:43:10;11.07;;;5.88;;
14001;SDS011;7076;51.280;12.584;2023-06-22T07:48:13;7.60;;;6.75;;
14001;SDS011;7076;51.280;12.584;2023-06-22T07:53:18;9.32;;;6.90;;
14001;SDS011;7076;51.280;12.584;2023-06-22T07:58:21;6.70;;;6.10;;
14001;SDS011;7076;51.280;12.584;2023-06-22T08:03:24;7.25;;;6.18;;
14001;SDS011;7076;51.280;12.584;2023-06-22T08:08:28;7.30;;;6.57;;
14001;SDS011;7076;51.280;12.584;2023-06-22T08:13:31;9.45;;;6.10;;
14001;SDS011;7076;51.280;12.584;2023-06-22T08:18:35;7.75;;;6.40;;
14001;SDS011;7076;51.280;12.584;2023-06-22T08:23:39;8.68;;;6.22;;
14001;SDS011;7076;51.280;12.584;2023-06-22T08:28:42;8.90;;;6.35;;
14001;SDS011;7076;51.280;12.584;2023-06-22T08:33:45;9.32;;;6.63;;
14001;SDS011;7076;51.280;12.584;2023-06-22T08:38:51;7.55;;;6.03;;
14001;SDS011;7076;51.280;12.584;2023-06-22T08:44:04;7.38;;;6.05;;
14001;SDS011;7076;51.280;12.584;2023-06-22T08:49:07;6.95;;;6.10;;
14001;SDS011;7076;51.280;12.584;2023-06-22T08:54:13;6.53;;;5.95;;
14001;SDS011;7076;51.280;12.584;2023-06-22T08:59:16;6.93;;;6.25;;
14001;SDS011;7076;51.280;12.584;2023-06-22T09:04:19;6.38;;;5.78;;
14001;SDS011;7076;51.280;12.584;2023-06-22T09:09:25;6.72;;;5.95;;
14001;SDS011;7076;51.280;12.584;2023-06-22T09:14:28;6.28;;;5.78;;
14001;SDS011;7076;51.280;12.584;2023-06-22T09:19:31;6.93;;;5.65;;
14001;SDS011;7076;51.280;12.584;2023-06-22T09:24:35;6.32;;;5.80;;
14001;SDS011;7076;51.280;12.584;2023-06-22T09:29:38;5.68;;;5.18;;
14001;SDS011;7076;51.280;12.584;2023-06-22T09:34:41;10.43;;;5.82;;
14001;SDS011;7076;51.280;12.584;2023-06-22T09:39:45;6.32;;;5.82;;
14001;SDS011;7076;51.280;12.584;2023-06-22T09:44:48;6.53;;;5.22;;
14001;SDS011;7076;51.280;12.584;2023-06-22T09:49:51;5.68;;;4.82;;
14001;SDS011;7076;51.280;12.584;2023-06-22T09:54:58;5.65;;;5.10;;
14001;SDS011;7076;51.280;12.584;2023-06-22T10:00:00;7.05;;;4.85;;
14001;SDS011;7076;51.280;12.584;2023-06-22T10:05:08;4.95;;;4.55;;
14001;SDS011;7076;51.280;12.584;2023-06-22T10:10:14;4.90;;;4.43;;
14001;SDS011;7076;51.280;12.584;2023-06-22T10:15:17;4.85;;;4.30;;
14001;SDS011;7076;51.280;12.584;2023-06-22T10:20:20;5.00;;;4.60;;
14001;SDS011;7076;51.280;12.584;2023-06-22T10:25:25;5.72;;;3.70;;
14001;SDS011;7076;51.280;12.584;2023-06-22T10:30:29;4.93;;;4.20;;
14001;SDS011;7076;51.280;12.584;2023-06-22T10:35:32;6.45;;;4.00;;
14001;SDS011;7076;51.280;12.584;2023-06-22T10:40:36;4.68;;;4.10;;
14001;SDS011;7076;51.280;12.584;2023-06-22T10:45:40;6.47;;;4.65;;
14001;SDS011;7076;51.280;12.584;2023-06-22T10:50:43;6.65;;;5.28;;
14001;SDS011;7076;51.280;12.584;2023-06-22T10:55:48;5.60;;;4.32;;
14001;SDS011;7076;51.280;12.584;2023-06-22T11:00:58;5.55;;;5.05;;
14001;SDS011;7076;51.280;12.584;2023-06-22T11:06:02;5.70;;;4.53;;
14001;SDS011;7076;51.280;12.584;2023-06-22T11:11:07;5.20;;;4.70;;
14001;SDS011;7076;51.280;12.584;2023-06-22T11:16:10;5.45;;;4.35;;
14001;SDS011;7076;51.280;12.584;2023-06-22T11:21:13;5.15;;;4.18;;
14001;SDS011;7076;51.280;12.584;2023-06-22T11:26:17;5.03;;;4.55;;
14001;SDS011;7076;51.280;12.584;2023-06-22T11:31:20;8.77;;;5.22;;
14001;SDS011;7076;51.280;12.584;2023-06-22T11:36:27;4.85;;;4.45;;
14001;SDS011;7076;51.280;12.584;2023-06-22T11:41:35;5.93;;;5.30;;
14001;SDS011;7076;51.280;12.584;2023-06-22T11:46:38;6.80;;;4.90;;
14001;SDS011;7076;51.280;12.584;2023-06-22T11:51:41;5.28;;;4.82;;
14001;SDS011;7076;51.280;12.584;2023-06-22T11:56:46;5.10;;;4.60;;
14001;SDS011;7076;51.280;12.584;2023-06-22T12:01:49;5.60;;;5.05;;
14001;SDS011;7076;51.280;12.584;2023-06-22T12:06:53;6.18;;;5.07;;
14001;SDS011;7076;51.280;12.584;2023-06-22T12:11:57;5.50;;;4.70;;
14001;SDS011;7076;51.280;12.584;2023-06-22T12:17:00;6.05;;;5.20;;
14001;SDS011;7076;51.280;12.584;2023-06-22T12:22:03;6.15;;;5.55;;
14001;SDS011;7076;51.280;12.584;2023-06-22T12:27:08;6.05;;;5.45;;
14001;SDS011;7076;51.280;12.584;2023-06-22T12:32:11;7.25;;;5.47;;
14001;SDS011;7076;51.280;12.584;2023-06-22T12:37:15;5.70;;;5.15;;
14001;SDS011;7076;51.280;12.584;2023-06-22T12:42:19;6.38;;;5.30;;
14001;SDS011;7076;51.280;12.584;2023-06-22T12:47:22;6.25;;;5.40;;
14001;SDS011;7076;51.280;12.584;2023-06-22T12:52:26;5.40;;;4.90;;
14001;SDS011;7076;51.280;12.584;2023-06-22T12:57:30;5.72;;;5.22;;
14001;SDS011;7076;51.280;12.584;2023-06-22T13:02:33;6.00;;;4.93;;
14001;SDS011;7076;51.280;12.584;2023-06-22T13:07:36;7.60;;;5.38;;
14001;SDS011;7076;51.280;12.584;2023-06-22T13:12:41;5.03;;;4.63;;
14001;SDS011;7076;51.280;12.584;2023-06-22T13:17:44;6.53;;;5.03;;
14001;SDS011;7076;51.280;12.584;2023-06-22T13:22:48;5.43;;;4.93;;
14001;SDS011;7076;51.280;12.584;2023-06-22T13:27:54;5.82;;;5.28;;
14001;SDS011;7076;51.280;12.584;2023-06-22T13:32:59;5.80;;;5.15;;
14001;SDS011;7076;51.280;12.584;2023-06-22T13:38:08;6.18;;;5.57;;
14001;SDS011;7076;51.280;12.584;2023-06-22T13:43:13;5.43;;;4.97;;
14001;SDS011;7076;51.280;12.584;2023-06-22T13:48:19;5.50;;;5.00;;
14001;SDS011;7076;51.280;12.584;2023-06-22T13:53:22;5.40;;;4.90;;
14001;SDS011;7076;51.280;12.584;2023-06-22T13:58:28;8.15;;;5.10;;
14001;SDS011;7076;51.280;12.584;2023-06-22T14:03:37;5.75;;;5.15;;
14001;SDS011;7076;51.280;12.584;2023-06-22T14:08:51;5.80;;;5.00;;
14001;SDS011;7076;51.280;12.584;2023-06-22T14:13:55;5.80;;;5.30;;
14001;SDS011;7076;51.280;12.584;2023-06-22T14:18:58;6.30;;;5.40;;
14001;SDS011;7076;51.280;12.584;2023-06-22T14:24:01;6.68;;;5.63;;
14001;SDS011;7076;51.280;12.584;2023-06-22T14:29:05;6.00;;;5.50;;
14001;SDS011;7076;51.280;12.584;2023-06-22T14:34:08;5.93;;;5.07;;
14001;SDS011;7076;51.280;12.584;2023-06-22T14:39:11;5.53;;;5.03;;
14001;SDS011;7076;51.280;12.584;2023-06-22T14:44:16;8.13;;;5.25;;
14001;SDS011;7076;51.280;12.584;2023-06-22T14:49:19;6.30;;;5.13;;
14001;SDS011;7076;51.280;12.584;2023-06-22T14:54:29;5.35;;;4.75;;
14001;SDS011;7076;51.280;12.584;2023-06-22T14:59:36;6.13;;;4.90;;
14001;SDS011;7076;51.280;12.584;2023-06-22T15:04:38;6.20;;;5.03;;
14001;SDS011;7076;51.280;12.584;2023-06-22T15:09:41;6.25;;;4.88;;
14001;SDS011;7076;51.280;12.584;2023-06-22T15:14:47;6.70;;;5.30;;
14001;SDS011;7076;51.280;12.584;2023-06-22T15:19:50;6.25;;;5.30;;
14001;SDS011;7076;51.280;12.584;2023-06-22T15:24:53;6.75;;;5.30;;
14001;SDS011;7076;51.280;12.584;2023-06-22T15:30:00;11.75;;;5.20;;
14001;SDS011;7076;51.280;12.584;2023-06-22T15:35:04;6.05;;;5.00;;
14001;SDS011;7076;51.280;12.584;2023-06-22T15:40:08;5.28;;;4.82;;
14001;SDS011;7076;51.280;12.584;2023-06-22T15:45:13;5.80;;;5.15;;
14001;SDS011;7076;51.280;12.584;2023-06-22T15:50:16;6.57;;;4.60;;
14001;SDS011;7076;51.280;12.584;2023-06-22T15:55:19;5.68;;;5.18;;
14001;SDS011;7076;51.280;12.584;2023-06-22T16:00:27;5.40;;;4.88;;
14001;SDS011;7076;51.280;12.584;2023-06-22T16:05:30;5.10;;;4.70;;
14001;SDS011;7076;51.280;12.584;2023-06-22T16:10:33;4.78;;;4.38;;
14001;SDS011;7076;51.280;12.584;2023-06-22T16:15:38;5.13;;;4.63;;
14001;SDS011;7076;51.280;12.584;2023-06-22T16:20:41;5.70;;;4.63;;
14001;SDS011;7076;51.280;12.584;2023-06-22T16:25:44;10.23;;;5.07;;
14001;SDS011;7076;51.280;12.584;2023-06-22T16:30:49;5.68;;;5.15;;
14001;SDS011;7076;51.280;12.584;2023-06-22T16:35:54;5.75;;;4.95;;
14001;SDS011;7076;51.280;12.584;2023-06-22T16:40:56;6.32;;;5.05;;
14001;SDS011;7076;51.280;12.584;2023-06-22T16:46:01;5.88;;;5.38;;
14001;SDS011;7076;51.280;12.584;2023-06-22T16:51:04;6.20;;;5.32;;
14001;SDS011;7076;51.280;12.584;2023-06-22T16:56:07;6.28;;;5.00;;
14001;SDS011;7076;51.280;12.584;2023-06-22T17:01:12;6.15;;;5.43;;
14001;SDS011;7076;51.280;12.584;2023-06-22T17:06:18;6.32;;;5.32;;
14001;SDS011;7076;51.280;12.584;2023-06-22T17:11:22;6.70;;;5.75;;
14001;SDS011;7076;51.280;12.584;2023-06-22T17:16:26;6.70;;;5.60;;
14001;SDS011;7076;51.280;12.584;2023-06-22T17:21:31;8.45;;;5.78;;
14001;SDS011;7076;51.280;12.584;2023-06-22T17:26:35;7.40;;;5.93;;
14001;SDS011;7076;51.280;12.584;2023-06-22T17:31:39;7.32;;;5.63;;
14001;SDS011;7076;51.280;12.584;2023-06-22T17:36:46;6.25;;;5.65;;
14001;SDS011;7076;51.280;12.584;2023-06-22T17:41:54;6.38;;;5.78;;
14001;SDS011;7076;51.280;12.584;2023-06-22T17:46:59;6.25;;;5.65;;
14001;SDS011;7076;51.280;12.584;2023-06-22T17:52:02;6.97;;;5.82;;
14001;SDS011;7076;51.280;12.584;2023-06-22T17:57:12;7.45;;;6.20;;
14001;SDS011;7076;51.280;12.584;2023-06-22T18:02:20;6.25;;;5.65;;
14001;SDS011;7076;51.280;12.584;2023-06-22T18:07:25;8.30;;;6.45;;
14001;SDS011;7076;51.280;12.584;2023-06-22T18:12:31;6.70;;;6.00;;
14001;SDS011;7076;51.280;12.584;2023-06-22T18:17:35;6.95;;;5.65;;
14001;SDS011;7076;51.280;12.584;2023-06-22T18:22:39;10.50;;;5.93;;
14001;SDS011;7076;51.280;12.584;2023-06-22T18:27:42;10.52;;;6.07;;
14001;SDS011;7076;51.280;12.584;2023-06-22T18:32:47;7.38;;;6.68;;
14001;SDS011;7076;51.280;12.584;2023-06-22T18:37:51;7.18;;;6.47;;
14001;SDS011;7076;51.280;12.584;2023-06-22T18:42:58;6.88;;;6.13;;
14001;SDS011;7076;51.280;12.584;2023-06-22T18:48:04;8.95;;;6.57;;
14001;SDS011;7076;51.280;12.584;2023-06-22T18:53:14;7.72;;;6.20;;
14001;SDS011;7076;51.280;12.584;2023-06-22T18:58:22;7.07;;;6.32;;
14001;SDS011;7076;51.280;12.584;2023-06-22T19:03:31;7.20;;;6.50;;
14001;SDS011;7076;51.280;12.584;2023-06-22T19:14:19;7.22;;;6.53;;
14001;SDS011;7076;51.280;12.584;2023-06-22T19:19:24;8.98;;;6.70;;
14001;SDS011;7076;51.280;12.584;2023-06-22T19:24:28;7.22;;;6.53;;
14001;SDS011;7076;51.280;12.584;2023-06-22T19:29:32;7.47;;;6.70;;
14001;SDS011;7076;51.280;12.584;2023-06-22T19:34:41;8.40;;;6.50;;
14001;SDS011;7076;51.280;12.584;2023-06-22T19:40:10;7.68;;;6.97;;
14001;SDS011;7076;51.280;12.584;2023-06-22T19:45:14;7.18;;;6.47;;
14001;SDS011;7076;51.280;12.584;2023-06-22T19:50:20;15.63;;;8.43;;
14001;SDS011;7076;51.280;12.584;2023-06-22T19:55:26;11.98;;;7.63;;
14001;SDS011;7076;51.280;12.584;2023-06-22T20:00:29;11.90;;;8.27;;
14001;SDS011;7076;51.280;12.584;2023-06-22T20:05:40;12.98;;;8.32;;
14001;SDS011;7076;51.280;12.584;2023-06-22T20:10:44;11.88;;;8.60;;
14001;SDS011;7076;51.280;12.584;2023-06-22T20:15:47;6.72;;;5.53;;
14001;SDS011;7076;51.280;12.584;2023-06-22T20:20:51;7.93;;;6.45;;
14001;SDS011;7076;51.280;12.584;2023-06-22T20:25:54;8.75;;;7.40;;
14001;SDS011;7076;51.280;12.584;2023-06-22T20:31:01;10.85;;;6.95;;
14001;SDS011;7076;51.280;12.584;2023-06-22T20:36:07;10.85;;;8.20;;
14001;SDS011;7076;51.280;12.584;2023-06-22T20:41:12;13.60;;;8.40;;
14001;SDS011;7076;51.280;12.584;2023-06-22T20:46:16;8.25;;;7.43;;
14001;SDS011;7076;51.280;12.584;2023-06-22T20:51:21;10.02;;;8.68;;
14001;SDS011;7076;51.280;12.584;2023-06-22T20:56:26;7.45;;;2.55;;
14001;SDS011;7076;51.280;12.584;2023-06-22T21:01:29;7.97;;;6.28;;
14001;SDS011;7076;51.280;12.584;2023-06-22T21:06:35;9.68;;;5.15;;
14001;SDS011;7076;51.280;12.584;2023-06-22T21:11:39;9.10;;;3.38;;
14001;SDS011;7076;51.280;12.584;2023-06-22T21:16:42;6.82;;;2.75;;
14001;SDS011;7076;51.280;12.584;2023-06-22T21:21:46;4.13;;;2.20;;
14001;SDS011;7076;51.280;12.584;2023-06-22T21:26:49;2.05;;;1.70;;
14001;SDS011;7076;51.280;12.584;2023-06-22T21:31:52;3.60;;;2.40;;
14001;SDS011;7076;51.280;12.584;2023-06-22T21:36:56;2.67;;;2.20;;
14001;SDS011;7076;51.280;12.584;2023-06-22T21:41:59;2.47;;;1.00;;
14001;SDS011;7076;51.280;12.584;2023-06-22T21:47:02;2.58;;;1.40;;
14001;SDS011;7076;51.280;12.584;2023-06-22T21:52:07;4.72;;;1.20;;
14001;SDS011;7076;51.280;12.584;2023-06-22T21:57:10;1.42;;;0.90;;
14001;SDS011;7076;51.280;12.584;2023-06-22T22:02:13;7.03;;;0.80;;
14001;SDS011;7076;51.280;12.584;2023-06-22T22:07:17;1.55;;;0.90;;
14001;SDS011;7076;51.280;12.584;2023-06-22T22:12:20;4.20;;;1.00;;
14001;SDS011;7076;51.280;12.584;2023-06-22T22:17:23;6.13;;;0.90;;
14001;SDS011;7076;51.280;12.584;2023-06-22T22:22:29;1.20;;;0.68;;
14001;SDS011;7076;51.280;12.584;2023-06-22T22:27:32;5.05;;;0.93;;
14001;SDS011;7076;51.280;12.584;2023-06-22T22:32:35;1.90;;;0.93;;
14001;SDS011;7076;51.280;12.584;2023-06-22T22:37:39;3.47;;;0.98;;
14001;SDS011;7076;51.280;12.584;2023-06-22T22:42:42;2.22;;;0.90;;
14001;SDS011;7076;51.280;12.584;2023-06-22T22:47:45;1.98;;;0.85;;
14001;SDS011;7076;51.280;12.584;2023-06-22T22:52:49;1.50;;;0.90;;
14001;SDS011;7076;51.280;12.584;2023-06-22T22:57:52;1.70;;;0.80;;
14001;SDS011;7076;51.280;12.584;2023-06-22T23:02:55;3.05;;;1.10;;
14001;SDS011;7076;51.280;12.584;2023-06-22T23:08:01;1.77;;;0.70;;
14001;SDS011;7076;51.280;12.584;2023-06-22T23:13:05;2.05;;;0.90;;
14001;SDS011;7076;51.280;12.584;2023-06-22T23:18:08;5.45;;;0.68;;
14001;SDS011;7076;51.280;12.584;2023-06-22T23:23:12;2.05;;;0.70;;
14001;SDS011;7076;51.280;12.584;2023-06-22T23:28:15;1.00;;;0.70;;
14001;SDS011;7076;51.280;12.584;2023-06-22T23:33:37;3.55;;;0.70;;
14001;SDS011;7076;51.280;12.584;2023-06-22T23:38:43;4.70;;;0.77;;
14001;SDS011;7076;51.280;12.584;2023-06-22T23:43:46;2.95;;;0.88;;
14001;SDS011;7076;51.280;12.584;2023-06-22T23:48:49;2.55;;;0.70;;
14001;SDS011;7076;51.280;12.584;2023-06-22T23:53:53;3.58;;;0.95;;
14001;SDS011;7076;51.280;12.584;2023-06-22T23:58:56;3.13;;;0.90;;
